Startpagina
METAR-TAF:

METAR-TAF

Vliegvelden :

Saint-Yan, Frankrijk

breedte: 46-24-45N, lengte: 004-00-48E, hoogte: 244 m

Actueel weer

Dit bericht is 17 minuten geleden gemaakt, om 03:00 UTC
Wind 7 kt uit het noordwesten
Temperatuur 4°C
Vochtigheid 93%
Druk 1025 hPa
Zicht 10 km of meer
geen wolken onder 1500 m en geen cumulonimbus

METAR: LFLN 120300Z AUTO 31007KT CAVOK 04/03 Q1025

Tijdstip: 05:17 (03:17 UTC)

Verwachting

Dit bericht is 10 uur en het 17 minuten geleden gemaakt, om 17:00 UTC
Verwachting geldig van 11 om 18 UTC tot 12 om 03 UTC
Wind 10 kt uit het noordwesten
Zicht 10 km of meer
Weinig wolken op 1000 ft
Gebroken wolken op 2500 ft
Tijdelijke
van 11 om 18 UTC tot 11 om 22 UTC
Geheel bewolkt op 800 ft
lichte regen
Kans 30% :
Tijdelijke
van 11 om 18 UTC tot 11 om 22 UTC
Geheel bewolkt op 500 ft

TAF: LFLN 111700Z 1118/1203 32010KT 9999 FEW010 BKN025 TEMPO 1118/1122 -RA OVC008 PROB30 TEMPO 1118/1122 OVC005

Waarnemingen en weersverwachtingen van meer dan 4000 vliegvelden (METAR en TAF).

De beschikbare stations zijn de gele en rode punten op de kaart.

Ga met uw muis naar het station om de naam te zien.

Klik dan om waarnemingen en weersverwachtingen te zien.

kaart wijzigen: klik op de groene knoppen met een zwart kruis om in te zoomen, op de groene knop met een streepje om uit te zoomen of op de groene pijlen voor aangrenzende kaarten.


METAR-TAF: